Afric Star — A8KJ8 — position and weather

sailwx.info

Track history (hours):
 
Tides and Currents Weather Stations Pressure Air Temp Water Temp Dewpoint Dewpoint Depression Visibility Wind Speed Wind Dir Waves Ship Positions

Afric Star

Last reported at 2017-May-31 08:41 UTC. Time now 2017-Aug-18 20:23 UTC.
Position N 59°54' E 030°13'.
Warning: this ship's position is months out of date.

Length 158 m; draft 8.5 m.

Type: Cargo ship. MMSI: 636013069.

Date/timePositionNaut miles runAvg speedWind from/ knotsBaromVisibWave heightAir tempDewpointWater temp
2017-May-31 08:41N 59°54' E 030°13'0 0.0
2017-May-31 08:29N 59°54' E 030°13'0 0.0
2017-May-31 07:59N 59°54' E 030°13'0 0.0
2017-May-31 07:29N 59°54' E 030°13'0 0.0
2017-May-31 06:59N 59°54' E 030°13'0 0.0
2017-May-31 06:29N 59°54' E 030°13'0 0.0
2017-May-31 05:59N 59°54' E 030°13'0 0.0
2017-May-31 05:29N 59°54' E 030°13'0 0.0
2017-May-31 04:59N 59°54' E 030°13'0 0.0
2017-May-31 04:29N 59°54' E 030°13'0 0.0
2017-May-31 03:59N 59°54' E 030°13'0 0.0
2017-May-31 03:29N 59°54' E 030°13'0 0.0
2017-May-31 02:59N 59°54' E 030°13'0 0.0
2017-May-31 02:29N 59°54' E 030°13'0 0.0
2017-May-31 01:59N 59°54' E 030°13'0 0.0
2017-May-31 01:29N 59°54' E 030°13'0 0.0
2017-May-31 00:59N 59°54' E 030°13'0 0.0
2017-May-31 00:29N 59°54' E 030°13'0 0.0
2017-May-30 23:59N 59°54' E 030°13'0 0.0
2017-May-30 23:29N 59°54' E 030°13'0 0.0
2017-May-30 22:59N 59°54' E 030°13'0 0.0
2017-May-30 22:29N 59°54' E 030°13'0 0.0
2017-May-30 21:59N 59°54' E 030°13'0 0.0
2017-May-30 21:29N 59°54' E 030°13'0 0.0
2017-May-30 20:59N 59°54' E 030°13'0 0.0
2017-May-30 20:29N 59°54' E 030°13'0 0.0
2017-May-30 19:59N 59°54' E 030°13'0 0.0
2017-May-30 19:29N 59°54' E 030°13'0 0.0
2017-May-30 18:59N 59°54' E 030°13'0 0.0
2017-May-30 18:29N 59°54' E 030°13'0 0.0
2017-May-30 17:59N 59°54' E 030°13'0 0.0
2017-May-30 17:29N 59°54' E 030°13'0 0.0
2017-May-30 16:59N 59°54' E 030°13'0 0.0
2017-May-30 16:29N 59°54' E 030°13'0 0.0
2017-May-30 15:59N 59°54' E 030°13'0 0.0
2017-May-30 15:29N 59°54' E 030°13'0 0.0
2017-May-30 14:59N 59°54' E 030°13'0 0.0
2017-May-30 14:29N 59°54' E 030°13'0 0.0
2017-May-30 13:29N 59°54' E 030°13'0 0.0
2017-May-30 12:59N 59°54' E 030°13'0 0.0
2017-May-30 12:29N 59°54' E 030°13'0 0.0
2017-May-30 11:59N 59°54' E 030°13'0 0.0
2017-May-30 11:29N 59°54' E 030°13'0 0.0
2017-May-30 10:59N 59°54' E 030°13'0 0.0
2017-May-30 10:29N 59°54' E 030°13'0 0.0
2017-May-30 09:59N 59°54' E 030°13'0 0.0
2017-May-30 09:29N 59°54' E 030°13'0 0.0
2017-May-30 08:53N 59°54' E 030°13'0 0.0
2017-May-30 08:23N 59°54' E 030°13'0 0.0
2017-May-30 07:59N 59°54' E 030°13'0 0.0
2017-May-30 07:29N 59°54' E 030°13'0 0.0
2017-May-30 06:59N 59°54' E 030°13'0 0.0
2017-May-30 06:29N 59°54' E 030°13'0 0.0
2017-May-30 05:59N 59°54' E 030°13'0 0.0
2017-May-30 05:29N 59°54' E 030°13'0 0.0
2017-May-30 04:59N 59°54' E 030°13'0 0.0
2017-May-30 04:29N 59°54' E 030°13'0 0.4
2017-May-30 04:00N 59°55' E 030°13'1 1.0
2017-May-30 03:30N 59°54' E 030°13'2 4.3
2017-May-30 03:00N 59°53' E 030°09'4 7.3
2017-May-30 02:28N 59°55' E 030°02'21 2.0
2017-May-29 16:09N 60°02' E 029°23'0 0.0
2017-May-29 15:47N 60°02' E 029°23'0 0.0
2017-May-29 15:21N 60°02' E 029°23'0 0.0
2017-May-29 14:51N 60°02' E 029°23'0 0.0
2017-May-29 13:36N 60°02' E 029°23'0 0.1
2017-May-29 13:24N 60°02' E 029°23'0 0.1
2017-May-29 12:51N 60°02' E 029°24'0 0.1
2017-May-29 12:21N 60°02' E 029°23'0 0.0
2017-May-28 03:20N 60°02' E 029°23'0 0.0
2017-May-28 02:56N 60°02' E 029°23'0 0.0
2017-May-28 02:26N 60°02' E 029°23'0 0.0
2017-May-28 01:56N 60°02' E 029°23'0 0.0
2017-May-28 01:26N 60°02' E 029°23'0 0.0
2017-May-28 00:41N 60°02' E 029°23'0 0.0
2017-May-28 00:26N 60°02' E 029°23'0 0.0
2017-May-26 22:38N 60°02' E 029°23'0 0.2
2017-May-26 22:20N 60°02' E 029°23'0 0.1
2017-May-26 21:53N 60°02' E 029°23'0 0.1
2017-May-26 21:20N 60°02' E 029°24'0 0.1
2017-May-26 20:44N 60°02' E 029°24'0 0.2
2017-May-26 20:30N 60°02' E 029°23'2 3.8
2017-May-26 20:00N 60°02' E 029°20'612.7
2017-May-26 19:30N 60°02' E 029°07'714.5
2017-May-26 19:00N 60°02' E 028°53'816.2
2017-May-26 18:30N 60°02' E 028°36'816.3
2017-May-26 18:00N 60°05' E 028°21'916.5
2017-May-26 17:26N 60°09' E 028°04'716.8
2017-May-26 17:00N 60°11' E 027°50'1116.7
2017-May-26 16:22N 60°06' E 027°31'1017.0
2017-May-26 15:47N 60°01' E 027°14'616.9
2017-May-26 15:27N 59°58' E 027°04'816.9
2017-May-26 14:59N 59°59' E 026°49'817.0
2017-May-26 14:30N 59°58' E 026°32'34316.5
2017-May-25 17:43N 56°32' E 017°52'417.3
2017-May-25 17:28N 56°29' E 017°46'817.3
2017-May-25 17:00N 56°24' E 017°34'917.2
2017-May-25 16:30N 56°19' E 017°22'917.2
2017-May-25 16:00N 56°14' E 017°10'917.1
2017-May-25 15:30N 56°08' E 016°58'917.2
2017-May-25 15:00N 56°03' E 016°46'1717.3
2017-May-25 14:00N 55°55' E 016°19'917.3
2017-May-25 13:30N 55°51' E 016°05'917.3
2017-May-25 13:00N 55°46' E 015°52'917.2
2017-May-25 12:30N 55°42' E 015°38'817.0
2017-May-25 12:00N 55°38' E 015°25'917.2
2017-May-25 11:30N 55°34' E 015°11'917.4
2017-May-25 11:00N 55°30' E 014°59'917.3
2017-May-25 10:30N 55°25' E 014°45'817.0
2017-May-25 10:00N 55°20' E 014°34'917.5
2017-May-25 09:30N 55°13' E 014°24'917.3
2017-May-25 09:00N 55°06' E 014°15'816.5
2017-May-25 08:30N 55°01' E 014°04'917.6
2017-May-25 08:00N 54°58' E 013°50'917.4
2017-May-25 07:30N 54°55' E 013°35'917.3
2017-May-25 07:00N 54°52' E 013°21'917.2
2017-May-25 06:30N 54°49' E 013°07'816.8
2017-May-25 06:00N 54°47' E 012°53'816.4
2017-May-25 05:30N 54°44' E 012°40'1816.5
2017-May-25 04:25N 54°32' E 012°16'716.7
2017-May-25 04:00N 54°26' E 012°13'1316.8
2017-May-25 03:14N 54°24' E 011°50'1517.7
2017-May-25 02:23N 54°30' E 011°27'718.0
2017-May-25 02:00N 54°33' E 011°16'917.7
2017-May-25 01:30N 54°38' E 011°03'816.4
2017-May-25 01:00N 54°43' E 010°52'917.4
2017-May-25 00:30N 54°51' E 010°52'917.1
2017-May-25 00:00N 54°59' E 011°00'7115.8
2017-May-24 19:29N 56°10' E 011°13'3616.6
2017-May-24 17:20N 56°40' E 011°46'616.3
2017-May-24 16:58N 56°45' E 011°52'817.6
2017-May-24 16:30N 56°53' E 011°47'917.7
2017-May-24 15:59N 57°01' E 011°41'817.3
2017-May-24 15:30N 57°09' E 011°37'816.9
2017-May-24 15:00N 57°17' E 011°31'1716.8
2017-May-24 13:59N 57°32' E 011°15'816.8
2017-May-24 13:30N 57°38' E 011°04'916.9
2017-May-24 13:00N 57°43' E 010°51'816.3
2017-May-24 12:30N 57°47' E 010°38'918.1
2017-May-24 12:00N 57°46' E 010°21'1017.9
2017-May-24 11:27N 57°45' E 010°02'1117.8
2017-May-24 10:52N 57°43' E 009°43'7916.8
2017-May-24 06:10N 57°38' E 007°16'316.5
2017-May-24 06:00N 57°38' E 007°11'816.3
2017-May-24 05:30N 57°38' E 006°56'816.4
2017-May-24 05:00N 57°38' E 006°40'816.3
2017-May-24 04:29N 57°38' E 006°25'816.6
2017-May-24 03:59N 57°40' E 006°10'28117.1
2017-May-23 11:32N 58°41' W 002°31'116.5
2017-May-23 11:30N 58°41' W 002°32'816.5
2017-May-23 11:00N 58°42' W 002°48'613.0
2017-May-23 10:30N 58°43' W 003°00'713.7
2017-May-23 10:00N 58°43' W 003°14'816.3
2017-May-23 09:30N 58°43' W 003°29'917.4
2017-May-23 09:00N 58°43' W 003°46'917.9
2017-May-23 08:30N 58°43' W 004°03'917.6
2017-May-23 08:00N 58°43' W 004°20'  
Track history (hours):
 
Tides and Currents Weather Stations Pressure Air Temp Water Temp Dewpoint Dewpoint Depression Visibility Wind Speed Wind Dir Waves Ship Positions

Afric Star

Last reported at 2017-May-31 08:41 UTC. Time now 2017-Aug-18 20:23 UTC.
Position N 59°54' E 030°13'.
Warning: this ship's position is months out of date.

Length 158 m; draft 8.5 m.

Type: Cargo ship. MMSI: 636013069.

Date/timePositionNaut miles runAvg speedWind from/ knotsBaromVisibWave heightAir tempDewpointWater temp
2017-May-31 08:41N 59°54' E 030°13'0 0.0
2017-May-31 08:29N 59°54' E 030°13'0 0.0
2017-May-31 07:59N 59°54' E 030°13'0 0.0
2017-May-31 07:29N 59°54' E 030°13'0 0.0
2017-May-31 06:59N 59°54' E 030°13'0 0.0
2017-May-31 06:29N 59°54' E 030°13'0 0.0
2017-May-31 05:59N 59°54' E 030°13'0 0.0
2017-May-31 05:29N 59°54' E 030°13'0 0.0
2017-May-31 04:59N 59°54' E 030°13'0 0.0
2017-May-31 04:29N 59°54' E 030°13'0 0.0
2017-May-31 03:59N 59°54' E 030°13'0 0.0
2017-May-31 03:29N 59°54' E 030°13'0 0.0
2017-May-31 02:59N 59°54' E 030°13'0 0.0
2017-May-31 02:29N 59°54' E 030°13'0 0.0
2017-May-31 01:59N 59°54' E 030°13'0 0.0
2017-May-31 01:29N 59°54' E 030°13'0 0.0
2017-May-31 00:59N 59°54' E 030°13'0 0.0
2017-May-31 00:29N 59°54' E 030°13'0 0.0
2017-May-30 23:59N 59°54' E 030°13'0 0.0
2017-May-30 23:29N 59°54' E 030°13'0 0.0
2017-May-30 22:59N 59°54' E 030°13'0 0.0
2017-May-30 22:29N 59°54' E 030°13'0 0.0
2017-May-30 21:59N 59°54' E 030°13'0 0.0
2017-May-30 21:29N 59°54' E 030°13'0 0.0
2017-May-30 20:59N 59°54' E 030°13'0 0.0
2017-May-30 20:29N 59°54' E 030°13'0 0.0
2017-May-30 19:59N 59°54' E 030°13'0 0.0
2017-May-30 19:29N 59°54' E 030°13'0 0.0
2017-May-30 18:59N 59°54' E 030°13'0 0.0
2017-May-30 18:29N 59°54' E 030°13'0 0.0
2017-May-30 17:59N 59°54' E 030°13'0 0.0
2017-May-30 17:29N 59°54' E 030°13'0 0.0
2017-May-30 16:59N 59°54' E 030°13'0 0.0
2017-May-30 16:29N 59°54' E 030°13'0 0.0
2017-May-30 15:59N 59°54' E 030°13'0 0.0
2017-May-30 15:29N 59°54' E 030°13'0 0.0
2017-May-30 14:59N 59°54' E 030°13'0 0.0
2017-May-30 14:29N 59°54' E 030°13'0 0.0
2017-May-30 13:29N 59°54' E 030°13'0 0.0
2017-May-30 12:59N 59°54' E 030°13'0 0.0
2017-May-30 12:29N 59°54' E 030°13'0 0.0
2017-May-30 11:59N 59°54' E 030°13'0 0.0
2017-May-30 11:29N 59°54' E 030°13'0 0.0
2017-May-30 10:59N 59°54' E 030°13'0 0.0
2017-May-30 10:29N 59°54' E 030°13'0 0.0
2017-May-30 09:59N 59°54' E 030°13'0 0.0
2017-May-30 09:29N 59°54' E 030°13'0 0.0
2017-May-30 08:53N 59°54' E 030°13'0 0.0
2017-May-30 08:23N 59°54' E 030°13'0 0.0
2017-May-30 07:59N 59°54' E 030°13'0 0.0
2017-May-30 07:29N 59°54' E 030°13'0 0.0
2017-May-30 06:59N 59°54' E 030°13'0 0.0
2017-May-30 06:29N 59°54' E 030°13'0 0.0
2017-May-30 05:59N 59°54' E 030°13'0 0.0
2017-May-30 05:29N 59°54' E 030°13'0 0.0
2017-May-30 04:59N 59°54' E 030°13'0 0.0
2017-May-30 04:29N 59°54' E 030°13'0 0.4
2017-May-30 04:00N 59°55' E 030°13'1 1.0
2017-May-30 03:30N 59°54' E 030°13'2 4.3
2017-May-30 03:00N 59°53' E 030°09'4 7.3
2017-May-30 02:28N 59°55' E 030°02'21 2.0
2017-May-29 16:09N 60°02' E 029°23'0 0.0
2017-May-29 15:47N 60°02' E 029°23'0 0.0
2017-May-29 15:21N 60°02' E 029°23'0 0.0
2017-May-29 14:51N 60°02' E 029°23'0 0.0
2017-May-29 13:36N 60°02' E 029°23'0 0.1
2017-May-29 13:24N 60°02' E 029°23'0 0.1
2017-May-29 12:51N 60°02' E 029°24'0 0.1
2017-May-29 12:21N 60°02' E 029°23'0 0.0
2017-May-28 03:20N 60°02' E 029°23'0 0.0
2017-May-28 02:56N 60°02' E 029°23'0 0.0
2017-May-28 02:26N 60°02' E 029°23'0 0.0
2017-May-28 01:56N 60°02' E 029°23'0 0.0
2017-May-28 01:26N 60°02' E 029°23'0 0.0
2017-May-28 00:41N 60°02' E 029°23'0 0.0
2017-May-28 00:26N 60°02' E 029°23'0 0.0
2017-May-26 22:38N 60°02' E 029°23'0 0.2
2017-May-26 22:20N 60°02' E 029°23'0 0.1
2017-May-26 21:53N 60°02' E 029°23'0 0.1
2017-May-26 21:20N 60°02' E 029°24'0 0.1
2017-May-26 20:44N 60°02' E 029°24'0 0.2
2017-May-26 20:30N 60°02' E 029°23'2 3.8
2017-May-26 20:00N 60°02' E 029°20'612.7
2017-May-26 19:30N 60°02' E 029°07'714.5
2017-May-26 19:00N 60°02' E 028°53'816.2
2017-May-26 18:30N 60°02' E 028°36'816.3
2017-May-26 18:00N 60°05' E 028°21'916.5
2017-May-26 17:26N 60°09' E 028°04'716.8
2017-May-26 17:00N 60°11' E 027°50'1116.7
2017-May-26 16:22N 60°06' E 027°31'1017.0
2017-May-26 15:47N 60°01' E 027°14'616.9
2017-May-26 15:27N 59°58' E 027°04'816.9
2017-May-26 14:59N 59°59' E 026°49'817.0
2017-May-26 14:30N 59°58' E 026°32'34316.5
2017-May-25 17:43N 56°32' E 017°52'417.3
2017-May-25 17:28N 56°29' E 017°46'817.3
2017-May-25 17:00N 56°24' E 017°34'917.2
2017-May-25 16:30N 56°19' E 017°22'917.2
2017-May-25 16:00N 56°14' E 017°10'917.1
2017-May-25 15:30N 56°08' E 016°58'917.2
2017-May-25 15:00N 56°03' E 016°46'1717.3
2017-May-25 14:00N 55°55' E 016°19'917.3
2017-May-25 13:30N 55°51' E 016°05'917.3
2017-May-25 13:00N 55°46' E 015°52'917.2
2017-May-25 12:30N 55°42' E 015°38'817.0
2017-May-25 12:00N 55°38' E 015°25'917.2
2017-May-25 11:30N 55°34' E 015°11'917.4
2017-May-25 11:00N 55°30' E 014°59'917.3
2017-May-25 10:30N 55°25' E 014°45'817.0
2017-May-25 10:00N 55°20' E 014°34'917.5
2017-May-25 09:30N 55°13' E 014°24'917.3
2017-May-25 09:00N 55°06' E 014°15'816.5
2017-May-25 08:30N 55°01' E 014°04'917.6
2017-May-25 08:00N 54°58' E 013°50'917.4
2017-May-25 07:30N 54°55' E 013°35'917.3
2017-May-25 07:00N 54°52' E 013°21'917.2
2017-May-25 06:30N 54°49' E 013°07'816.8
2017-May-25 06:00N 54°47' E 012°53'816.4
2017-May-25 05:30N 54°44' E 012°40'1816.5
2017-May-25 04:25N 54°32' E 012°16'716.7
2017-May-25 04:00N 54°26' E 012°13'1316.8
2017-May-25 03:14N 54°24' E 011°50'1517.7
2017-May-25 02:23N 54°30' E 011°27'718.0
2017-May-25 02:00N 54°33' E 011°16'917.7
2017-May-25 01:30N 54°38' E 011°03'816.4
2017-May-25 01:00N 54°43' E 010°52'917.4
2017-May-25 00:30N 54°51' E 010°52'917.1
2017-May-25 00:00N 54°59' E 011°00'7115.8
2017-May-24 19:29N 56°10' E 011°13'3616.6
2017-May-24 17:20N 56°40' E 011°46'616.3
2017-May-24 16:58N 56°45' E 011°52'817.6
2017-May-24 16:30N 56°53' E 011°47'917.7
2017-May-24 15:59N 57°01' E 011°41'817.3
2017-May-24 15:30N 57°09' E 011°37'816.9
2017-May-24 15:00N 57°17' E 011°31'1716.8
2017-May-24 13:59N 57°32' E 011°15'816.8
2017-May-24 13:30N 57°38' E 011°04'916.9
2017-May-24 13:00N 57°43' E 010°51'816.3
2017-May-24 12:30N 57°47' E 010°38'918.1
2017-May-24 12:00N 57°46' E 010°21'1017.9
2017-May-24 11:27N 57°45' E 010°02'1117.8
2017-May-24 10:52N 57°43' E 009°43'7916.8
2017-May-24 06:10N 57°38' E 007°16'316.5
2017-May-24 06:00N 57°38' E 007°11'816.3
2017-May-24 05:30N 57°38' E 006°56'816.4
2017-May-24 05:00N 57°38' E 006°40'816.3
2017-May-24 04:29N 57°38' E 006°25'816.6
2017-May-24 03:59N 57°40' E 006°10'28117.1
2017-May-23 11:32N 58°41' W 002°31'116.5
2017-May-23 11:30N 58°41' W 002°32'816.5
2017-May-23 11:00N 58°42' W 002°48'613.0
2017-May-23 10:30N 58°43' W 003°00'713.7
2017-May-23 10:00N 58°43' W 003°14'816.3
2017-May-23 09:30N 58°43' W 003°29'917.4
2017-May-23 09:00N 58°43' W 003°46'917.9
2017-May-23 08:30N 58°43' W 004°03'917.6
2017-May-23 08:00N 58°43' W 004°20'  

Dump ship's entire track history